createdAt,value
2018-03-24T00:00:52.869Z,10.63
2018-03-24T00:03:56.136Z,13.20
2018-03-24T00:07:00.282Z,11.83
2018-03-24T00:10:04.677Z,14.23
2018-03-24T00:13:07.950Z,14.40
2018-03-24T00:16:11.222Z,15.30
2018-03-24T00:19:14.489Z,13.53
2018-03-24T00:22:17.939Z,13.27
2018-03-24T00:25:21.223Z,12.13
2018-03-24T00:28:24.484Z,14.17
2018-03-24T00:31:28.521Z,15.00
2018-03-24T00:34:31.780Z,13.90
2018-03-24T00:37:35.917Z,19.57
2018-03-24T00:40:39.940Z,15.30
2018-03-24T00:43:43.208Z,18.03
2018-03-24T00:46:46.546Z,14.13
2018-03-24T00:49:49.831Z,17.13
2018-03-24T00:52:53.129Z,13.73
2018-03-24T00:55:56.462Z,15.83
2018-03-24T00:58:59.742Z,18.03
2018-03-24T01:02:03.004Z,15.67
2018-03-24T01:05:07.127Z,15.23
2018-03-24T01:08:11.172Z,16.07
2018-03-24T01:11:14.449Z,17.83
2018-03-24T01:14:17.833Z,15.77
2018-03-24T01:17:21.894Z,14.97
2018-03-24T01:20:25.183Z,14.20
2018-03-24T01:23:28.476Z,15.40
2018-03-24T01:26:31.742Z,17.00
2018-03-24T01:29:35.881Z,18.70
2018-03-24T01:32:39.168Z,14.90
2018-03-24T01:35:42.448Z,14.50
2018-03-24T01:38:46.502Z,17.50
2018-03-24T01:41:49.799Z,15.40
2018-03-24T01:44:53.048Z,18.73
2018-03-24T01:47:56.317Z,17.97
2018-03-24T01:50:59.586Z,16.93
2018-03-24T01:54:02.876Z,19.03
2018-03-24T01:57:06.472Z,17.83
2018-03-24T02:00:10.495Z,19.37
2018-03-24T02:03:13.768Z,16.63
2018-03-24T02:06:18.075Z,17.92
2018-03-24T02:09:21.420Z,20.30
2018-03-24T02:12:24.701Z,17.00
2018-03-24T02:15:28.745Z,15.07
2018-03-24T02:18:32.081Z,16.50
2018-03-24T02:21:51.089Z,17.97
2018-03-24T02:24:54.371Z,16.73
2018-03-24T02:27:58.432Z,15.37
2018-03-24T02:31:01.721Z,18.87
2018-03-24T02:34:05.026Z,19.15
2018-03-24T02:37:08.319Z,15.93
2018-03-24T02:40:11.882Z,15.97
2018-03-24T02:43:15.199Z,18.37
2018-03-24T02:46:18.482Z,15.33
2018-03-24T02:49:22.571Z,18.37
2018-03-24T02:52:26.318Z,18.70
2018-03-24T02:55:30.366Z,19.13
2018-03-24T02:58:33.661Z,20.60
2018-03-24T03:01:36.932Z,23.20
2018-03-24T03:04:40.284Z,22.17
2018-03-24T03:07:43.571Z,22.07
2018-03-24T03:10:46.928Z,24.83
2018-03-24T03:13:50.311Z,25.87
2018-03-24T03:16:54.384Z,22.90
2018-03-24T03:19:57.660Z,26.13
2018-03-24T03:23:00.922Z,22.27
2018-03-24T03:26:04.960Z,25.92
2018-03-24T03:29:08.440Z,30.83
2018-03-24T03:32:19.907Z,26.87
2018-03-24T03:35:23.189Z,23.80
2018-03-24T03:38:26.461Z,23.03
2018-03-24T03:41:29.752Z,25.60
2018-03-24T03:44:33.022Z,22.80
2018-03-24T03:47:36.350Z,25.77
2018-03-24T03:50:39.617Z,24.10
2018-03-24T03:53:42.909Z,20.67
2018-03-24T03:56:46.974Z,21.20
2018-03-24T03:59:51.057Z,25.87
2018-03-24T04:02:54.341Z,19.27
2018-03-24T04:05:58.565Z,21.83
2018-03-24T04:09:02.138Z,22.57
2018-03-24T04:12:05.464Z,18.87
2018-03-24T04:15:09.523Z,25.37
2018-03-24T04:18:12.917Z,18.20
2018-03-24T04:21:16.192Z,19.37
2018-03-24T04:24:19.486Z,17.53
2018-03-24T04:27:22.785Z,16.50
2018-03-24T04:30:26.065Z,16.47
2018-03-24T04:33:30.112Z,19.07
2018-03-24T04:36:33.425Z,20.53
2018-03-24T04:39:36.799Z,16.63
2018-03-24T04:42:40.101Z,19.57
2018-03-24T04:45:43.386Z,18.17
2018-03-24T04:48:46.665Z,17.33
2018-03-24T04:51:50.706Z,21.07
2018-03-24T04:54:54.005Z,21.73
2018-03-24T04:57:57.594Z,23.63
2018-03-24T05:01:01.647Z,22.83
2018-03-24T05:04:04.957Z,19.40
2018-03-24T05:07:08.249Z,17.67
2018-03-24T05:10:11.539Z,20.27
2018-03-24T05:13:14.866Z,20.30
2018-03-24T05:16:18.145Z,20.93
2018-03-24T05:19:21.437Z,19.77
2018-03-24T05:22:24.804Z,21.77
2018-03-24T05:25:28.085Z,22.33
2018-03-24T05:28:32.170Z,19.97
2018-03-24T05:31:35.465Z,22.37
2018-03-24T05:34:38.793Z,25.30
2018-03-24T05:37:44.106Z,21.63
2018-03-24T05:40:47.802Z,23.12
2018-03-24T05:43:55.531Z,25.17
2018-03-24T05:46:58.901Z,22.10
2018-03-24T05:50:03.181Z,17.67
2018-03-24T05:53:07.983Z,19.30
2018-03-24T05:56:11.277Z,24.17
2018-03-24T05:59:14.860Z,20.07
2018-03-24T06:02:18.255Z,21.53
2018-03-24T06:05:21.554Z,19.30
2018-03-24T06:08:25.983Z,16.50
2018-03-24T06:11:29.997Z,18.53
2018-03-24T06:14:33.317Z,20.07
2018-03-24T06:17:36.700Z,16.40
2018-03-24T06:20:40.120Z,15.97
2018-03-24T06:23:43.678Z,12.40
2018-03-24T06:26:46.937Z,11.43
2018-03-24T06:29:50.252Z,15.53
2018-03-24T06:32:53.518Z,17.60
2018-03-24T06:35:58.711Z,10.00
2018-03-24T06:39:03.839Z,10.90
2018-03-24T06:42:07.514Z,9.80
2018-03-24T06:45:11.354Z,9.23
2018-03-24T06:48:14.616Z,11.07
2018-03-24T06:51:17.926Z,14.97
2018-03-24T06:54:22.037Z,11.87
2018-03-24T06:57:25.444Z,10.10
2018-03-24T07:00:28.756Z,12.73
2018-03-24T07:03:32.021Z,11.37
2018-03-24T07:06:35.295Z,10.77
2018-03-24T07:09:39.334Z,13.77
2018-03-24T07:12:42.884Z,13.67
2018-03-24T07:15:46.987Z,13.80
2018-03-24T07:18:51.747Z,13.23
2018-03-24T07:21:55.277Z,14.63
2018-03-24T07:24:58.630Z,14.27
2018-03-24T07:28:01.936Z,15.63
2018-03-24T07:31:05.259Z,15.10
2018-03-24T07:34:09.515Z,15.43
2018-03-24T07:37:12.840Z,13.23
2018-03-24T07:40:16.115Z,11.17
2018-03-24T07:43:19.602Z,12.20
2018-03-24T07:46:22.886Z,11.40
2018-03-24T07:49:28.086Z,11.40
2018-03-24T07:52:31.507Z,11.33
2018-03-24T07:55:36.367Z,9.37
2018-03-24T07:58:40.468Z,10.43
2018-03-24T08:01:43.883Z,7.47
2018-03-24T08:04:47.795Z,9.63
2018-03-24T08:07:51.107Z,10.03
2018-03-24T08:10:54.968Z,10.83
2018-03-24T08:13:59.751Z,11.57
2018-03-24T08:17:03.109Z,8.23
2018-03-24T08:20:06.419Z,10.90
2018-03-24T08:23:09.674Z,7.57
2018-03-24T08:26:12.940Z,7.00
2018-03-24T08:29:16.261Z,11.07
2018-03-24T08:32:19.635Z,8.27
2018-03-24T08:35:23.673Z,7.40
2018-03-24T08:38:27.006Z,9.20
2018-03-24T08:41:30.284Z,9.20
2018-03-24T08:44:34.358Z,8.10
2018-03-24T08:47:38.585Z,7.10
2018-03-24T08:50:41.873Z,7.67
2018-03-24T08:53:46.138Z,7.30
2018-03-24T08:56:49.973Z,7.00
2018-03-24T08:59:53.260Z,8.10
2018-03-24T09:02:56.605Z,5.90
2018-03-24T09:06:01.126Z,6.87
2018-03-24T09:09:05.552Z,7.67
2018-03-24T09:12:08.886Z,8.63
2018-03-24T09:15:12.148Z,8.07
2018-03-24T09:18:16.414Z,8.33
2018-03-24T09:21:19.690Z,9.35
2018-03-24T09:24:23.036Z,6.63
2018-03-24T09:27:26.359Z,7.87
2018-03-24T09:30:29.623Z,6.82
2018-03-24T09:33:32.870Z,5.60
2018-03-24T09:36:36.272Z,6.40
2018-03-24T09:39:39.746Z,6.67
2018-03-24T09:42:43.770Z,7.30
2018-03-24T09:45:47.944Z,8.13
2018-03-24T09:48:51.601Z,7.07
2018-03-24T09:51:56.463Z,13.17
2018-03-24T09:54:59.734Z,7.57
2018-03-24T09:58:02.989Z,9.33
2018-03-24T10:01:06.297Z,8.03
2018-03-24T10:04:09.572Z,8.40
2018-03-24T10:07:12.824Z,9.13
2018-03-24T10:10:16.109Z,8.57
2018-03-24T10:13:19.388Z,7.37
2018-03-24T10:16:23.620Z,9.67
2018-03-24T10:19:27.697Z,12.27
2018-03-24T10:22:44.373Z,10.70
2018-03-24T10:25:47.646Z,11.23
2018-03-24T10:28:51.711Z,9.90
2018-03-24T10:31:54.994Z,8.50
2018-03-24T10:35:04.707Z,10.23
2018-03-24T10:38:09.035Z,10.67
2018-03-24T10:41:13.074Z,10.20
2018-03-24T10:44:16.352Z,10.33
2018-03-24T10:47:20.415Z,9.17
2018-03-24T10:50:23.733Z,8.20
2018-03-24T10:53:27.186Z,8.70
2018-03-24T10:56:31.088Z,10.17
2018-03-24T10:59:34.382Z,8.37
2018-03-24T11:02:38.414Z,8.00
2018-03-24T11:05:41.745Z,8.23
2018-03-24T11:08:45.009Z,7.60
2018-03-24T11:11:48.344Z,8.87
2018-03-24T11:14:52.419Z,8.57
2018-03-24T11:17:55.742Z,8.57
2018-03-24T11:20:59.118Z,10.47
2018-03-24T11:24:02.399Z,10.20
2018-03-24T11:27:06.424Z,7.23
2018-03-24T11:30:09.696Z,9.77
2018-03-24T11:33:14.082Z,8.30
2018-03-24T11:36:17.349Z,8.73
2018-03-24T11:39:20.625Z,11.23
2018-03-24T11:42:24.663Z,9.10
2018-03-24T11:45:27.931Z,11.93
2018-03-24T11:48:31.210Z,13.47
2018-03-24T11:51:35.326Z,10.43
2018-03-24T11:54:44.957Z,12.50
2018-03-24T11:57:49.017Z,10.87
2018-03-24T12:00:52.284Z,10.70
2018-03-24T12:03:56.344Z,8.67
2018-03-24T12:06:59.722Z,8.80
2018-03-24T12:10:03.032Z,9.50
2018-03-24T12:13:06.311Z,9.90
2018-03-24T12:16:09.590Z,10.10
2018-03-24T12:19:13.648Z,11.20
2018-03-24T12:22:16.914Z,9.30
2018-03-24T12:25:21.204Z,10.27
2018-03-24T12:28:24.471Z,9.67
2018-03-24T12:31:27.742Z,9.70
2018-03-24T12:34:31.005Z,9.25
2018-03-24T12:37:37.506Z,9.50
2018-03-24T12:40:40.790Z,10.10
2018-03-24T12:43:44.108Z,10.47
2018-03-24T12:46:47.405Z,11.00
2018-03-24T12:49:50.698Z,7.40
2018-03-24T12:52:54.064Z,9.50
2018-03-24T12:55:58.108Z,10.73
2018-03-24T12:59:01.378Z,10.77
2018-03-24T13:02:05.456Z,9.80
2018-03-24T13:05:08.729Z,9.57
2018-03-24T13:08:11.988Z,8.87
2018-03-24T13:11:16.076Z,7.23
2018-03-24T13:14:19.357Z,8.90
2018-03-24T13:17:22.636Z,8.07
2018-03-24T13:20:25.925Z,8.30
2018-03-24T13:23:29.245Z,7.67
2018-03-24T13:26:32.501Z,8.50
2018-03-24T13:29:36.649Z,8.80
2018-03-24T13:32:39.917Z,8.47
2018-03-24T13:35:44.028Z,8.68
2018-03-24T13:38:49.316Z,7.30
2018-03-24T13:41:52.646Z,9.97
2018-03-24T13:44:55.926Z,7.90
2018-03-24T13:47:59.324Z,9.20
2018-03-24T13:51:04.067Z,8.57
2018-03-24T13:54:07.393Z,7.80
2018-03-24T13:57:11.446Z,6.37
2018-03-24T14:00:16.421Z,8.47
2018-03-24T14:03:19.732Z,9.30
2018-03-24T14:06:23.813Z,9.17
2018-03-24T14:09:27.503Z,8.20
2018-03-24T14:12:30.778Z,9.37
2018-03-24T14:15:34.045Z,8.82
2018-03-24T14:18:38.083Z,8.67
2018-03-24T14:21:42.145Z,8.63
2018-03-24T14:24:45.777Z,8.87
2018-03-24T14:27:49.081Z,6.73
2018-03-24T14:30:52.354Z,6.90
2018-03-24T14:33:55.650Z,9.27
2018-03-24T14:36:58.914Z,7.33
2018-03-24T14:40:02.824Z,8.18
2018-03-24T14:43:06.094Z,7.20
2018-03-24T14:46:10.429Z,8.90
2018-03-24T14:49:14.477Z,8.83
2018-03-24T14:52:17.934Z,10.57
2018-03-24T14:55:22.069Z,9.60
2018-03-24T14:58:25.667Z,8.50
2018-03-24T15:01:29.988Z,9.20
2018-03-24T15:04:34.076Z,9.00
2018-03-24T15:07:38.115Z,10.77
2018-03-24T15:10:42.146Z,10.00
2018-03-24T15:13:45.437Z,9.80
2018-03-24T15:16:48.727Z,11.47
2018-03-24T15:19:53.040Z,11.07
2018-03-24T15:22:57.090Z,10.33
2018-03-24T15:26:00.353Z,12.93
2018-03-24T15:29:22.309Z,10.20
2018-03-24T15:32:53.416Z,13.13
2018-03-24T15:36:14.427Z,10.27
2018-03-24T15:39:17.743Z,14.73
2018-03-24T15:42:21.220Z,11.47
2018-03-24T15:45:24.531Z,14.23
2018-03-24T15:48:27.803Z,16.13
2018-03-24T15:51:31.117Z,12.33
2018-03-24T15:54:35.381Z,11.77
2018-03-24T15:57:38.655Z,15.27
2018-03-24T16:00:42.725Z,14.27
2018-03-24T16:03:46.230Z,12.60
2018-03-24T16:06:49.550Z,15.52
2018-03-24T16:09:52.822Z,12.37
2018-03-24T16:12:56.163Z,14.57
2018-03-24T16:15:59.429Z,15.07
2018-03-24T16:19:02.800Z,14.00
2018-03-24T16:22:06.058Z,17.30
2018-03-24T16:25:09.336Z,14.20
2018-03-24T16:28:12.780Z,17.00
2018-03-24T16:31:16.084Z,13.20
2018-03-24T16:34:19.363Z,14.18
2018-03-24T16:37:23.434Z,14.93
2018-03-24T16:40:26.718Z,14.80
2018-03-24T16:43:30.298Z,14.90
2018-03-24T16:46:34.475Z,13.47
2018-03-24T16:49:37.869Z,16.27
2018-03-24T16:52:41.153Z,15.70
2018-03-24T16:55:46.541Z,15.20
2018-03-24T16:58:50.530Z,14.20
2018-03-24T17:01:54.313Z,16.60
2018-03-24T17:04:57.586Z,15.17
2018-03-24T17:08:00.853Z,17.20
2018-03-24T17:11:04.380Z,17.67
2018-03-24T17:14:08.466Z,16.93
2018-03-24T17:17:11.799Z,17.07
2018-03-24T17:20:15.075Z,17.27
2018-03-24T17:23:18.414Z,14.57
2018-03-24T17:26:21.702Z,17.93
2018-03-24T17:29:24.986Z,13.50
2018-03-24T17:32:29.273Z,17.63
2018-03-24T17:35:32.913Z,16.33
2018-03-24T17:38:37.033Z,15.77
2018-03-24T17:41:41.285Z,17.97
2018-03-24T17:44:44.677Z,16.37
2018-03-24T17:47:47.965Z,16.53
2018-03-24T17:50:51.253Z,17.23
2018-03-24T17:53:54.673Z,16.08
2018-03-24T17:56:57.940Z,16.77
2018-03-24T18:00:01.978Z,18.07
2018-03-24T18:03:05.229Z,15.03
2018-03-24T18:06:08.732Z,14.57
2018-03-24T18:09:12.810Z,14.70
2018-03-24T18:12:16.113Z,22.33
2018-03-24T18:15:19.613Z,33.27
2018-03-24T18:18:22.899Z,38.30
2018-03-24T18:21:26.322Z,37.73
2018-03-24T18:24:29.850Z,19.23
2018-03-24T18:27:33.118Z,34.83
2018-03-24T18:30:36.390Z,28.03
2018-03-24T18:33:39.784Z,28.48
2018-03-24T18:36:43.060Z,24.87
2018-03-24T18:39:47.234Z,27.60
2018-03-24T18:42:50.512Z,30.83
2018-03-24T18:45:53.855Z,27.23
2018-03-24T18:48:58.029Z,14.77
2018-03-24T18:52:01.305Z,17.97
2018-03-24T18:55:05.364Z,15.40
2018-03-24T18:58:08.658Z,15.97
2018-03-24T19:01:11.939Z,18.33
2018-03-24T19:04:15.217Z,28.70
2018-03-24T19:07:18.719Z,30.47
2018-03-24T19:10:22.071Z,25.35
2018-03-24T19:13:25.667Z,27.40
2018-03-24T19:16:29.084Z,24.27
2018-03-24T19:19:32.912Z,33.83
2018-03-24T19:22:37.040Z,29.23
2018-03-24T19:25:40.721Z,29.37
2018-03-24T19:28:44.082Z,21.60
2018-03-24T19:31:47.547Z,24.83
2018-03-24T19:34:51.606Z,19.30
2018-03-24T19:37:54.973Z,23.33
2018-03-24T19:40:58.257Z,23.70
2018-03-24T19:44:02.300Z,19.73
2018-03-24T19:47:05.594Z,25.83
2018-03-24T19:50:10.429Z,19.50
2018-03-24T19:53:14.442Z,18.57
2018-03-24T19:56:17.753Z,17.10
2018-03-24T19:59:21.133Z,15.70
2018-03-24T20:02:24.681Z,15.60
2018-03-24T20:05:28.085Z,18.40
2018-03-24T20:08:31.432Z,14.23
2018-03-24T20:11:34.714Z,18.67
2018-03-24T20:14:38.771Z,15.33
2018-03-24T20:17:42.069Z,13.50
2018-03-24T20:20:45.394Z,11.77
2018-03-24T20:23:48.676Z,14.77
2018-03-24T20:26:51.995Z,15.13
2018-03-24T20:29:55.286Z,20.33
2018-03-24T20:32:58.562Z,16.73
2018-03-24T20:36:02.100Z,16.10
2018-03-24T20:39:05.524Z,11.32
2018-03-24T20:42:09.647Z,10.93
2018-03-24T20:45:13.697Z,14.10
2018-03-24T20:48:16.968Z,15.40
2018-03-24T20:51:20.889Z,13.97
2018-03-24T20:54:24.167Z,37.27
2018-03-24T20:57:27.577Z,28.03
2018-03-24T21:00:30.986Z,20.13
2018-03-24T21:03:34.254Z,15.17
2018-03-24T21:06:38.318Z,14.03
2018-03-24T21:09:41.618Z,14.93
2018-03-24T21:12:44.887Z,13.80
2018-03-24T21:15:48.200Z,19.73
2018-03-24T21:18:52.204Z,16.80
2018-03-24T21:21:55.494Z,23.27
2018-03-24T21:24:58.998Z,21.15
2018-03-24T21:28:02.332Z,19.63
2018-03-24T21:31:05.616Z,18.57
2018-03-24T21:34:08.920Z,17.70
2018-03-24T21:37:12.218Z,17.43
2018-03-24T21:40:15.510Z,14.27
2018-03-24T21:43:18.793Z,18.17
2018-03-24T21:46:22.085Z,20.53
2018-03-24T21:49:25.443Z,15.80
2018-03-24T21:52:29.216Z,19.13
2018-03-24T21:55:33.091Z,16.93
2018-03-24T21:58:37.148Z,11.87
2018-03-24T22:01:40.449Z,14.60
2018-03-24T22:04:45.121Z,18.93
2018-03-24T22:07:49.206Z,18.27
2018-03-24T22:10:52.575Z,16.83
2018-03-24T22:13:56.538Z,17.90
2018-03-24T22:16:59.836Z,17.60
2018-03-24T22:20:07.594Z,11.23
2018-03-24T22:23:11.205Z,16.90
2018-03-24T22:26:14.676Z,15.43
2018-03-24T22:29:18.101Z,17.13
2018-03-24T22:32:21.395Z,18.00
2018-03-24T22:35:25.425Z,14.40
2018-03-24T22:38:28.881Z,15.47
2018-03-24T22:41:32.189Z,21.30
2018-03-24T22:44:35.468Z,15.63
2018-03-24T22:47:38.763Z,16.93
2018-03-24T22:50:42.043Z,17.90
2018-03-24T22:53:45.334Z,15.05
2018-03-24T22:56:48.623Z,16.43
2018-03-24T22:59:51.979Z,13.40
2018-03-24T23:02:55.295Z,16.90
2018-03-24T23:06:00.352Z,19.50
2018-03-24T23:09:03.657Z,14.75
2018-03-24T23:12:07.723Z,14.83
2018-03-24T23:15:11.021Z,15.57
2018-03-24T23:18:14.317Z,21.47
2018-03-24T23:21:19.169Z,17.87
2018-03-24T23:24:23.248Z,14.27
2018-03-24T23:27:26.526Z,17.87
2018-03-24T23:30:29.851Z,20.63
2018-03-24T23:33:33.122Z,21.40
2018-03-24T23:36:36.430Z,20.77
2018-03-24T23:39:39.741Z,17.15
2018-03-24T23:42:43.042Z,19.83
2018-03-24T23:45:46.670Z,24.77
2018-03-24T23:48:50.738Z,18.90
2018-03-24T23:51:54.121Z,18.53
2018-03-24T23:54:57.416Z,21.83
2018-03-24T23:58:00.731Z,18.30
